Time;durP1;ratioP1;P1;durP2;ratioP2;P2;SDS_P1;SDS_P2;PMS_P1;PMS_P2;Temp;Humidity;BMP_temperature;BMP_pressure;BME280_temperature;BME280_humidity;BME280_pressure;Samples;Min_cycle;Max_cycle;Signal;HPM_P1;HPM_P2
2021/11/17 02:26:17;;;;;;;28.05;13.45;;;29.30;84.50;;;;;;5104489;28;20370;-52
2021/11/17 02:29:15;;;;;;;24.05;13.68;;;29.20;84.50;;;;;;5104051;28;20032;-46
2021/11/17 02:32:08;;;;;;;25.10;12.50;;;29.20;84.60;;;;;;5103982;28;20131;-48
2021/11/17 02:34:41;;;;;;;25.63;12.07;;;29.20;84.60;;;;;;5104095;28;20020;-50
2021/11/17 02:37:20;;;;;;;24.27;12.20;;;29.20;84.60;;;;;;5104092;28;20206;-47
2021/11/17 02:40:12;;;;;;;25.50;11.60;;;29.20;84.60;;;;;;5103640;28;20050;-50
2021/11/17 02:43:01;;;;;;;24.65;11.60;;;29.20;84.60;;;;;;5093278;28;20083;-52
2021/11/17 02:45:39;;;;;;;27.38;11.48;;;29.20;84.60;;;;;;5104167;28;20086;-52
2021/11/17 02:48:43;;;;;;;20.25;11.43;;;29.20;84.60;;;;;;5085957;28;20058;-50
2021/11/17 02:51:12;;;;;;;16.98;11.20;;;29.20;84.70;;;;;;5104031;28;20028;-50
2021/11/17 02:53:46;;;;;;;20.38;13.68;;;29.20;84.70;;;;;;5103770;28;20016;-48
2021/11/17 02:56:45;;;;;;;23.48;15.77;;;29.20;84.80;;;;;;5103891;28;20020;-50
2021/11/17 02:59:39;;;;;;;27.30;17.98;;;29.20;84.80;;;;;;5072602;28;20039;-54
2021/11/17 03:02:18;;;;;;;30.92;17.95;;;29.20;84.90;;;;;;5103714;28;20026;-48
2021/11/17 03:05:06;;;;;;;29.48;17.77;;;29.10;84.90;;;;;;5103906;28;20027;-49
2021/11/17 03:07:44;;;;;;;27.90;16.83;;;29.20;85.00;;;;;;5103600;28;20304;-46
2021/11/17 03:10:17;;;;;;;23.45;16.42;;;29.10;85.10;;;;;;5104010;28;20189;-45
2021/11/17 03:13:02;;;;;;;25.90;15.07;;;29.10;85.10;;;;;;5103515;28;20012;-45
2021/11/17 03:15:41;;;;;;;21.35;14.18;;;29.10;85.10;;;;;;5103845;28;20224;-54
2021/11/17 03:18:23;;;;;;;20.45;14.10;;;29.10;85.10;;;;;;5103433;28;20182;-46
2021/11/17 03:20:58;;;;;;;19.98;12.25;;;29.10;85.20;;;;;;5103905;28;20066;-51
2021/11/17 03:23:41;;;;;;;19.48;11.48;;;29.10;85.10;;;;;;5106369;28;20282;-50
2021/11/17 03:26:38;;;;;;;15.30;11.02;;;29.10;85.10;;;;;;5107378;28;20245;-52
2021/11/17 03:29:10;;;;;;;15.80;10.52;;;29.10;85.20;;;;;;5107611;28;20136;-50
2021/11/17 03:32:04;;;;;;;20.83;10.70;;;29.10;85.20;;;;;;5107637;28;20038;-55
2021/11/17 03:34:49;;;;;;;16.17;10.10;;;29.00;85.20;;;;;;5107454;28;20308;-54
2021/11/17 03:37:23;;;;;;;14.77;9.63;;;29.10;85.20;;;;;;5107451;28;20019;-53
2021/11/17 03:40:03;;;;;;;16.77;10.05;;;29.10;85.20;;;;;;5106772;28;20093;-52
2021/11/17 03:43:12;;;;;;;15.10;9.73;;;29.10;85.20;;;;;;5107089;28;20016;-48
2021/11/17 03:46:06;;;;;;;12.15;9.00;;;29.00;85.20;;;;;;5107474;28;20216;-43
2021/11/17 03:49:05;;;;;;;15.48;9.50;;;29.00;85.20;;;;;;5106781;28;20023;-51
2021/11/17 03:51:50;;;;;;;12.15;8.90;;;29.00;85.10;;;;;;5084030;28;20036;-42
2021/11/17 03:54:35;;;;;;;13.60;9.38;;;29.00;85.20;;;;;;5107187;28;20324;-46
2021/11/17 03:57:14;;;;;;;22.52;13.73;;;29.00;85.20;;;;;;5106704;28;20059;-44
2021/11/17 03:59:50;;;;;;;23.02;13.57;;;29.00;85.10;;;;;;5106604;28;20058;-47
2021/11/17 04:02:35;;;;;;;22.50;12.35;;;29.00;85.20;;;;;;5106594;28;20026;-46
2021/11/17 04:05:11;;;;;;;14.85;10.73;;;29.00;85.10;;;;;;5106835;28;20028;-48
2021/11/17 04:07:56;;;;;;;14.18;10.55;;;29.00;85.20;;;;;;5106576;28;20012;-43
2021/11/17 04:10:45;;;;;;;18.17;10.02;;;29.00;85.20;;;;;;5107020;28;20135;-50
2021/11/17 04:13:37;;;;;;;16.17;10.35;;;29.00;85.10;;;;;;5106714;28;20024;-48
2021/11/17 04:16:45;;;;;;;14.05;9.68;;;29.00;85.60;;;;;;5102929;28;20040;-44
2021/11/17 04:19:57;;;;;;;12.85;8.82;;;29.00;85.10;;;;;;5069025;28;20163;-44
2021/11/17 04:22:51;;;;;;;14.50;9.27;;;29.00;85.10;;;;;;5106285;28;20012;-44
2021/11/17 04:25:57;;;;;;;13.25;9.43;;;29.00;85.10;;;;;;5106687;28;20321;-46
2021/11/17 04:28:32;;;;;;;17.08;11.25;;;29.00;85.10;;;;;;5072643;28;20032;-43
2021/11/17 04:31:18;;;;;;;17.38;11.02;;;28.90;85.10;;;;;;5106506;28;20024;-52
2021/11/17 04:34:10;;;;;;;15.73;11.07;;;28.90;85.20;;;;;;5105536;28;20012;-51
2021/11/17 04:36:40;;;;;;;;;;;28.90;85.20;;;;;;5075659;28;20070;-42
2021/11/17 04:39:29;;;;;;;16.00;9.77;;;28.90;85.30;;;;;;5105723;28;19908;-45
2021/11/17 04:42:21;;;;;;;14.25;9.63;;;28.90;85.40;;;;;;5106260;28;20316;-45
2021/11/17 04:45:04;;;;;;;14.65;9.90;;;28.90;85.50;;;;;;5105625;28;20083;-44
2021/11/17 04:47:39;;;;;;;;;;;28.90;85.60;;;;;;5106095;28;20016;-43
2021/11/17 04:50:20;;;;;;;13.63;8.98;;;28.90;85.70;;;;;;5106338;28;19914;-51
2021/11/17 04:52:46;;;;;;;12.55;8.57;;;28.80;85.60;;;;;;5105526;28;20082;-51
2021/11/17 04:55:29;;;;;;;11.40;8.68;;;28.90;85.60;;;;;;5106060;28;20024;-45
2021/11/17 04:58:11;;;;;;;14.60;8.57;;;28.80;85.50;;;;;;5105584;28;20209;-51
2021/11/17 05:00:57;;;;;;;11.55;8.50;;;28.90;85.50;;;;;;5106086;28;20074;-51
2021/11/17 05:03:33;;;;;;;13.07;8.95;;;28.80;85.30;;;;;;5105198;28;20050;-48
2021/11/17 05:06:18;;;;;;;11.80;8.63;;;28.90;85.30;;;;;;5105680;28;20046;-46
2021/11/17 05:08:58;;;;;;;13.38;8.68;;;28.80;85.20;;;;;;5105419;28;20040;-44
2021/11/17 05:11:40;;;;;;;11.57;8.15;;;28.80;85.10;;;;;;5105202;28;20087;-48
2021/11/17 05:14:10;;;;;;;11.73;8.10;;;28.80;85.10;;;;;;5105533;28;20020;-46
2021/11/17 05:16:57;;;;;;;9.90;8.27;;;28.80;85.10;;;;;;5105286;28;20019;-45
2021/11/17 05:20:00;;;;;;;12.60;8.35;;;28.80;85.10;;;;;;5105556;28;20028;-44
2021/11/17 05:22:54;;;;;;;10.95;8.00;;;28.80;85.10;;;;;;5105261;28;20378;-46
2021/11/17 05:25:39;;;;;;;12.32;8.43;;;28.80;85.10;;;;;;5105260;28;20042;-50
2021/11/17 05:28:20;;;;;;;11.48;10.15;;;28.80;85.10;;;;;;5105273;28;20312;-48
2021/11/17 05:30:53;;;;;;;12.68;11.27;;;28.80;85.00;;;;;;5105464;28;20039;-45
2021/11/17 05:33:38;;;;;;;16.63;9.68;;;28.80;84.80;;;;;;5105221;28;20024;-49
2021/11/17 05:36:08;;;;;;;13.50;9.95;;;28.70;84.80;;;;;;5105190;28;20388;-47
2021/11/17 05:38:49;;;;;;;16.00;10.05;;;28.70;84.70;;;;;;5104906;28;20024;-46
2021/11/17 05:41:34;;;;;;;13.02;9.68;;;28.70;84.70;;;;;;5104769;28;20070;-47
2021/11/17 05:44:37;;;;;;;15.90;9.38;;;28.70;84.60;;;;;;5105076;28;20032;-47
2021/11/17 05:47:14;;;;;;;14.43;9.15;;;28.70;85.10;;;;;;5104721;28;20012;-49
2021/11/17 05:49:55;;;;;;;12.73;8.35;;;28.70;85.10;;;;;;5104741;28;20028;-48
2021/11/17 05:52:55;;;;;;;13.40;8.80;;;28.70;84.50;;;;;;5104777;28;20023;-43
2021/11/17 05:55:37;;;;;;;15.05;8.43;;;28.70;84.50;;;;;;5105165;28;20036;-46
2021/11/17 05:58:20;;;;;;;9.90;8.10;;;28.70;84.50;;;;;;5104521;28;20047;-42
2021/11/17 06:01:01;;;;;;;13.90;8.48;;;28.70;84.60;;;;;;5104896;28;20027;-44
2021/11/17 06:03:33;;;;;;;9.90;8.13;;;28.70;84.60;;;;;;5104378;28;20011;-46
2021/11/17 06:05:59;;;;;;;9.45;7.40;;;28.70;84.60;;;;;;5104403;28;20091;-51
2021/11/17 06:08:26;;;;;;;9.85;8.02;;;28.70;84.60;;;;;;5104326;28;20039;-46
2021/11/17 06:10:57;;;;;;;9.07;7.47;;;28.70;84.70;;;;;;5104718;28;20051;-46
2021/11/17 06:13:25;;;;;;;9.98;7.57;;;28.70;84.80;;;;;;5104321;28;20023;-49
2021/11/17 06:15:52;;;;;;;11.73;8.00;;;28.70;84.80;;;;;;5104515;28;20043;-52
2021/11/17 06:18:26;;;;;;;10.43;7.85;;;28.70;84.80;;;;;;5104366;28;20043;-46
2021/11/17 06:20:53;;;;;;;12.95;8.07;;;28.70;84.70;;;;;;5104600;28;20304;-44
2021/11/17 06:23:39;;;;;;;10.98;7.78;;;28.70;84.60;;;;;;5104021;28;20024;-45
2021/11/17 06:26:10;;;;;;;10.75;7.88;;;28.70;84.60;;;;;;5104377;28;20020;-45
2021/11/17 06:28:37;;;;;;;11.13;7.38;;;28.70;84.60;;;;;;5103986;28;20027;-42
2021/11/17 06:31:05;;;;;;;10.63;7.88;;;28.70;84.60;;;;;;5104104;28;20034;-44
2021/11/17 06:33:31;;;;;;;9.60;7.68;;;28.70;84.50;;;;;;5104308;28;20246;-46
2021/11/17 06:35:58;;;;;;;10.63;7.20;;;28.70;84.50;;;;;;5104253;28;20042;-48
2021/11/17 06:38:27;;;;;;;13.20;7.50;;;28.70;84.60;;;;;;5103928;28;20036;-43
2021/11/17 06:40:54;;;;;;;8.73;7.10;;;28.60;84.50;;;;;;5103738;28;20047;-42
2021/11/17 06:43:21;;;;;;;9.95;6.97;;;28.60;84.50;;;;;;5103871;28;20031;-43
2021/11/17 06:45:52;;;;;;;14.48;7.68;;;28.60;84.60;;;;;;5104122;28;20028;-45
2021/11/17 06:48:22;;;;;;;11.50;7.55;;;28.60;84.60;;;;;;5103873;28;20020;-44
2021/11/17 06:50:49;;;;;;;9.25;7.60;;;28.60;84.60;;;;;;5104085;28;20028;-45
2021/11/17 06:53:16;;;;;;;11.88;7.57;;;28.60;84.80;;;;;;5103760;28;20024;-44
2021/11/17 06:55:43;;;;;;;8.38;7.00;;;28.60;84.80;;;;;;5104571;28;20024;-47
2021/11/17 06:58:10;;;;;;;9.45;7.25;;;28.60;84.90;;;;;;5108026;28;20070;-52
2021/11/17 07:00:40;;;;;;;8.90;7.53;;;28.60;84.90;;;;;;5108293;28;20024;-44
2021/11/17 07:03:07;;;;;;;9.32;6.90;;;28.60;84.80;;;;;;5107892;28;20024;-50
2021/11/17 07:05:34;;;;;;;10.73;7.45;;;28.50;84.80;;;;;;5108210;28;20024;-42
2021/11/17 07:08:01;;;;;;;9.40;7.22;;;28.50;84.70;;;;;;5108114;28;20244;-47
2021/11/17 07:10:30;;;;;;;14.05;7.82;;;28.50;84.70;;;;;;5108098;28;20031;-46
2021/11/17 07:12:56;;;;;;;10.43;7.22;;;28.50;84.60;;;;;;5107676;28;20027;-50
2021/11/17 07:15:26;;;;;;;13.70;6.95;;;28.50;84.70;;;;;;5107598;28;20204;-48
2021/11/17 07:17:53;;;;;;;11.45;7.45;;;28.50;84.80;;;;;;5107473;28;20016;-43
2021/11/17 07:20:21;;;;;;;10.95;7.05;;;28.50;84.80;;;;;;5108094;28;20032;-44
2021/11/17 07:22:48;;;;;;;9.48;7.07;;;28.50;84.80;;;;;;5107678;28;20044;-46
2021/11/17 07:25:19;;;;;;;8.13;6.80;;;28.50;84.80;;;;;;5107555;28;20196;-53
2021/11/17 07:27:45;;;;;;;11.38;6.82;;;28.50;84.80;;;;;;5107526;28;20028;-48
2021/11/17 07:30:16;;;;;;;8.60;7.70;;;28.50;84.80;;;;;;5107846;28;20300;-51
2021/11/17 07:32:42;;;;;;;11.98;7.40;;;28.50;84.80;;;;;;5107083;28;20035;-46
2021/11/17 07:35:10;;;;;;;9.80;6.63;;;28.50;84.80;;;;;;5107848;28;20024;-46
2021/11/17 07:37:37;;;;;;;8.18;7.00;;;28.50;84.80;;;;;;5107185;28;20039;-47
2021/11/17 07:40:07;;;;;;;9.05;7.05;;;28.50;84.80;;;;;;5106881;28;20046;-50
2021/11/17 07:42:34;;;;;;;7.90;6.82;;;28.50;84.80;;;;;;5107243;28;20312;-45
2021/11/17 07:45:00;;;;;;;8.90;7.20;;;28.50;84.70;;;;;;5107257;28;20196;-47
2021/11/17 07:47:27;;;;;;;8.52;6.72;;;28.40;84.60;;;;;;5106914;28;20245;-43
2021/11/17 07:49:53;;;;;;;8.25;6.60;;;28.50;84.70;;;;;;5107268;28;20023;-44
2021/11/17 07:52:20;;;;;;;7.80;6.55;;;28.40;84.50;;;;;;5106911;28;20050;-46
2021/11/17 07:54:47;;;;;;;8.05;6.60;;;28.40;84.50;;;;;;5106955;28;20292;-50
2021/11/17 07:57:13;;;;;;;9.98;7.22;;;28.40;84.40;;;;;;5106862;28;20035;-44
2021/11/17 07:59:40;;;;;;;9.52;6.90;;;28.40;84.40;;;;;;5106810;28;20020;-47
2021/11/17 08:02:11;;;;;;;11.77;7.22;;;28.50;84.50;;;;;;5106657;28;20078;-50
2021/11/17 08:04:39;;;;;;;9.02;6.75;;;28.40;84.40;;;;;;5106994;28;20019;-45
2021/11/17 08:07:19;;;;;;;10.98;7.10;;;28.40;84.50;;;;;;5106500;28;20030;-47
2021/11/17 08:09:48;;;;;;;9.13;6.70;;;28.40;84.50;;;;;;5106460;28;20079;-46
2021/11/17 08:12:15;;;;;;;8.95;7.00;;;28.40;84.60;;;;;;5106413;28;20039;-50
2021/11/17 08:14:41;;;;;;;7.78;6.55;;;28.40;84.60;;;;;;5106675;28;20031;-46
2021/11/17 08:17:08;;;;;;;9.68;6.63;;;28.40;84.60;;;;;;5106580;28;20308;-43
2021/11/17 08:19:35;;;;;;;8.48;6.93;;;28.40;84.60;;;;;;5106496;28;20062;-50
2021/11/17 08:22:06;;;;;;;8.23;6.82;;;28.40;84.50;;;;;;5106374;28;20028;-51
2021/11/17 08:24:37;;;;;;;10.27;6.90;;;28.40;84.40;;;;;;5106282;28;20016;-48
2021/11/17 08:27:07;;;;;;;10.55;7.28;;;28.40;84.30;;;;;;5106256;28;20213;-53
2021/11/17 08:29:34;;;;;;;11.38;6.78;;;28.40;84.20;;;;;;5106320;28;20054;-49
2021/11/17 08:32:00;;;;;;;9.95;6.82;;;28.40;84.20;;;;;;5106405;28;20290;-48
2021/11/17 08:34:27;;;;;;;10.52;7.35;;;28.40;84.10;;;;;;5106443;28;20100;-50
2021/11/17 08:36:55;;;;;;;11.73;7.05;;;28.30;84.00;;;;;;5106008;28;20027;-54
2021/11/17 08:39:22;;;;;;;8.30;7.35;;;28.40;84.00;;;;;;5106048;28;20035;-50
2021/11/17 08:41:49;;;;;;;11.23;8.15;;;28.40;83.90;;;;;;5106098;28;20047;-46
2021/11/17 08:44:16;;;;;;;9.35;8.02;;;28.30;83.80;;;;;;5105996;28;20078;-47
2021/11/17 08:46:43;;;;;;;10.57;8.15;;;28.40;83.70;;;;;;5105934;28;20025;-47
2021/11/17 08:49:09;;;;;;;11.43;7.80;;;28.40;83.60;;;;;;5106047;28;20091;-49
2021/11/17 08:51:36;;;;;;;10.40;7.35;;;28.40;83.60;;;;;;5105824;28;20020;-47
2021/11/17 08:54:03;;;;;;;9.30;7.38;;;28.30;83.40;;;;;;5105916;28;20035;-44
2021/11/17 08:56:34;;;;;;;10.93;7.80;;;28.30;83.30;;;;;;5105742;28;20023;-45
2021/11/17 08:59:03;;;;;;;8.63;7.50;;;28.30;83.10;;;;;;5105603;28;20073;-45
2021/11/17 09:01:30;;;;;;;9.95;7.78;;;28.30;83.10;;;;;;5105521;28;20228;-49
2021/11/17 09:04:05;;;;;;;13.95;7.35;;;28.30;83.10;;;;;;5105561;28;20054;-45
2021/11/17 09:06:36;;;;;;;9.98;6.80;;;28.30;82.90;;;;;;5105457;28;20036;-47
2021/11/17 09:09:07;;;;;;;8.68;7.03;;;28.30;82.80;;;;;;5105526;28;20016;-42
2021/11/17 09:11:36;;;;;;;10.45;6.35;;;28.30;82.70;;;;;;5105630;28;20028;-50
2021/11/17 09:14:03;;;;;;;9.73;6.93;;;28.30;82.50;;;;;;5105440;28;20092;-46
2021/11/17 09:16:32;;;;;;;9.43;6.63;;;28.30;82.50;;;;;;5105416;28;20087;-46
2021/11/17 09:19:00;;;;;;;9.25;6.97;;;28.30;82.60;;;;;;5104701;28;20024;-43
2021/11/17 09:21:30;;;;;;;10.07;6.72;;;28.30;82.60;;;;;;5104562;28;20370;-42
2021/11/17 09:23:56;;;;;;;10.25;7.18;;;28.30;82.60;;;;;;5105282;28;20050;-43
2021/11/17 09:26:24;;;;;;;10.18;7.65;;;28.30;82.50;;;;;;5105043;28;20083;-47
2021/11/17 09:28:53;;;;;;;11.93;8.60;;;28.30;82.40;;;;;;5105074;28;20308;-44
2021/11/17 09:31:22;;;;;;;13.68;10.05;;;28.30;82.40;;;;;;5105234;28;20028;-50
2021/11/17 09:33:49;;;;;;;12.05;9.45;;;28.30;82.40;;;;;;5104918;28;20086;-53
2021/11/17 09:36:17;;;;;;;12.93;8.98;;;28.20;82.20;;;;;;5104919;28;20042;-46
2021/11/17 09:38:49;;;;;;;11.85;9.60;;;28.30;82.20;;;;;;5104868;28;20030;-51
2021/11/17 09:41:20;;;;;;;12.90;8.75;;;28.30;82.20;;;;;;5104396;28;20048;-46
2021/11/17 09:43:54;;;;;;;11.43;8.35;;;28.20;81.90;;;;;;5104918;28;20079;-45
2021/11/17 09:46:25;;;;;;;10.85;7.82;;;28.30;81.80;;;;;;5104731;28;20050;-44
2021/11/17 09:48:59;;;;;;;14.23;7.78;;;28.20;81.50;;;;;;5104817;28;20261;-47
2021/11/17 09:51:36;;;;;;;11.32;7.65;;;28.20;81.60;;;;;;5104587;28;20038;-48
2021/11/17 09:54:15;;;;;;;12.02;7.53;;;28.20;81.40;;;;;;5104815;28;20043;-49
2021/11/17 09:56:48;;;;;;;9.48;7.80;;;28.20;81.30;;;;;;5104656;28;20035;-53
2021/11/17 09:59:35;;;;;;;12.65;7.85;;;28.20;81.20;;;;;;5104726;28;20028;-57
2021/11/17 10:02:12;;;;;;;10.35;7.72;;;28.20;81.00;;;;;;5094135;28;20043;-53
2021/11/17 10:04:57;;;;;;;10.68;7.97;;;28.10;80.90;;;;;;5104511;28;20024;-53
2021/11/17 10:11:13;;;;;;;9.98;7.30;;;28.10;80.70;;;;;;5104749;28;20008;-54
2021/11/17 10:13:52;;;;;;;12.18;7.57;;;28.10;80.60;;;;;;5101904;28;20024;-53
2021/11/17 10:16:22;;;;;;;28.05;7.90;;;28.10;80.60;;;;;;5097562;28;20031;-55
2021/11/17 10:19:10;;;;;;;26.92;7.82;;;28.10;80.70;;;;;;5104203;28;20081;-53
2021/11/17 10:21:37;;;;;;;19.98;7.90;;;28.10;80.50;;;;;;5104124;28;20032;-55
2021/11/17 10:24:14;;;;;;;21.90;7.78;;;28.10;80.60;;;;;;5104185;28;20023;-56
2021/11/17 10:26:52;;;;;;;20.13;7.05;;;28.10;80.60;;;;;;5104047;28;20024;-54
2021/11/17 10:29:31;;;;;;;14.45;7.15;;;28.10;80.50;;;;;;5104134;28;20043;-53
2021/11/17 10:32:04;;;;;;;12.15;6.30;;;28.10;80.40;;;;;;5103899;28;20083;-53
2021/11/17 10:34:46;;;;;;;15.30;7.63;;;28.10;80.30;;;;;;5104251;28;20308;-54
2021/11/17 10:37:23;;;;;;;20.13;7.55;;;28.10;80.80;;;;;;5104114;28;20032;-55
2021/11/17 10:39:50;;;;;;;16.50;7.00;;;28.00;80.00;;;;;;5098744;28;20075;-54
2021/11/17 10:42:21;;;;;;;14.88;7.20;;;28.10;79.90;;;;;;5083495;28;20329;-55
2021/11/17 10:44:57;;;;;;;14.63;7.47;;;28.00;79.80;;;;;;5083931;28;20074;-56
2021/11/17 10:47:29;;;;;;;16.75;7.03;;;28.00;79.80;;;;;;5083631;28;20055;-55
2021/11/17 10:50:07;;;;;;;16.98;7.03;;;28.00;79.80;;;;;;5083944;28;20016;-53
2021/11/17 10:52:49;;;;;;;12.48;7.32;;;28.00;79.60;;;;;;5083568;28;20021;-47
2021/11/17 10:55:47;;;;;;;12.50;6.97;;;28.00;79.80;;;;;;5084158;28;20023;-46
2021/11/17 10:58:20;;;;;;;15.43;7.30;;;28.00;79.80;;;;;;5083705;28;20029;-44
2021/11/17 11:00:58;;;;;;;9.20;6.30;;;28.00;79.80;;;;;;5083817;28;20035;-50
2021/11/17 11:03:27;;;;;;;11.30;6.78;;;27.90;79.80;;;;;;5083490;28;20104;-50
2021/11/17 11:06:12;;;;;;;13.60;7.35;;;28.00;79.70;;;;;;5083955;28;20020;-45
2021/11/17 11:08:48;;;;;;;16.85;6.97;;;28.00;79.80;;;;;;5083519;28;20025;-47
2021/11/17 11:11:16;;;;;;;13.02;6.60;;;28.00;79.60;;;;;;5083678;28;20138;-45
2021/11/17 11:14:00;;;;;;;11.80;7.03;;;28.00;79.50;;;;;;5083591;28;20031;-50
2021/11/17 11:17:12;;;;;;;17.15;7.13;;;28.00;79.60;;;;;;5083224;28;20100;-45
2021/11/17 11:19:39;;;;;;;13.73;6.95;;;28.00;79.50;;;;;;5083492;28;20020;-43
2021/11/17 11:22:15;;;;;;;14.13;6.80;;;28.00;79.30;;;;;;5083319;28;20028;-50
2021/11/17 11:24:56;;;;;;;18.92;6.65;;;28.10;79.10;;;;;;5083606;28;20019;-50
2021/11/17 11:27:31;;;;;;;17.60;6.53;;;28.00;79.60;;;;;;5083209;28;20347;-46
2021/11/17 11:30:04;;;;;;;15.50;6.65;;;28.10;78.60;;;;;;5083170;28;20039;-46
2021/11/17 11:32:30;;;;;;;;;;;28.00;78.50;;;;;;5083724;28;20029;-47
2021/11/17 11:34:59;;;;;;;12.35;7.07;;;28.00;78.40;;;;;;5083340;28;19908;-46
2021/11/17 11:37:25;;;;;;;15.50;6.18;;;28.00;78.40;;;;;;5083094;28;20036;-49
2021/11/17 11:40:02;;;;;;;18.73;7.40;;;28.00;78.50;;;;;;5088494;28;20066;-46
2021/11/17 11:42:46;;;;;;;17.58;7.25;;;28.10;78.50;;;;;;5103346;28;20024;-44
2021/11/17 11:45:29;;;;;;;19.98;6.68;;;28.00;78.50;;;;;;5107186;28;20023;-48
2021/11/17 11:47:58;;;;;;;12.73;6.53;;;28.00;78.50;;;;;;5107026;28;20026;-45
2021/11/17 11:50:35;;;;;;;20.23;7.40;;;28.00;78.50;;;;;;5107099;28;20030;-49
2021/11/17 11:53:18;;;;;;;15.50;6.50;;;28.00;78.60;;;;;;5106890;28;20035;-44
2021/11/17 11:55:53;;;;;;;18.20;7.47;;;28.10;78.60;;;;;;5107025;28;20126;-47
2021/11/17 11:58:26;;;;;;;18.15;6.95;;;28.10;78.80;;;;;;5106676;28;20217;-46
2021/11/17 12:01:11;;;;;;;19.15;7.00;;;28.10;78.80;;;;;;5107216;28;20023;-43
2021/11/17 12:03:51;;;;;;;17.42;6.60;;;28.10;78.70;;;;;;5106935;28;20030;-43
2021/11/17 12:06:46;;;;;;;22.25;6.88;;;28.10;78.80;;;;;;5106494;28;20035;-47
2021/11/17 12:09:19;;;;;;;13.98;6.80;;;28.10;78.90;;;;;;5106758;28;20015;-55
2021/11/17 12:11:56;;;;;;;19.63;7.15;;;28.10;79.00;;;;;;5106619;28;20039;-45
2021/11/17 12:14:44;;;;;;;18.00;6.90;;;28.20;79.00;;;;;;5106522;28;20331;-46
2021/11/17 12:17:11;;;;;;;16.67;6.60;;;28.20;79.00;;;;;;5106489;28;20032;-46
2021/11/17 12:19:51;;;;;;;19.90;7.50;;;28.20;79.10;;;;;;5106586;28;20062;-50
2021/11/17 12:22:40;;;;;;;17.05;6.97;;;28.30;79.20;;;;;;5106275;28;20091;-44
2021/11/17 12:25:31;;;;;;;16.52;7.53;;;28.20;79.30;;;;;;5106665;28;20016;-48
2021/11/17 12:28:03;;;;;;;14.15;6.93;;;28.30;79.40;;;;;;5106211;28;20054;-44
2021/11/17 12:30:50;;;;;;;14.85;7.38;;;28.30;79.40;;;;;;5106525;28;20024;-48
2021/11/17 12:33:21;;;;;;;19.02;6.95;;;28.30;79.40;;;;;;5106200;28;20031;-49
2021/11/17 12:36:06;;;;;;;17.27;7.53;;;28.30;79.40;;;;;;5106473;28;20028;-52
2021/11/17 12:38:37;;;;;;;17.27;7.65;;;28.30;79.60;;;;;;5106103;28;20024;-47
2021/11/17 12:41:21;;;;;;;17.38;6.68;;;28.30;79.60;;;;;;5105758;28;20072;-43
2021/11/17 12:44:09;;;;;;;17.33;6.70;;;28.40;79.70;;;;;;5106026;28;20016;-42
2021/11/17 20:05:51;;;;;;;10.13;6.30;;;30.20;70.90;;;;;;5100956;27;20422;-52
2021/11/17 20:08:18;;;;;;;10.60;6.03;;;30.70;70.20;;;;;;5101304;28;20245;-47
2021/11/17 20:10:44;;;;;;;15.30;6.30;;;30.70;69.70;;;;;;5101892;28;20025;-51
2021/11/17 20:13:11;;;;;;;9.68;5.90;;;30.80;69.70;;;;;;5101043;28;20072;-50
2021/11/17 20:15:42;;;;;;;12.15;6.47;;;30.80;69.70;;;;;;5101156;28;20016;-49
2021/11/17 20:18:09;;;;;;;10.55;6.40;;;30.90;69.80;;;;;;5099916;28;20017;-49
2021/11/17 20:20:38;;;;;;;7.60;6.25;;;30.90;69.40;;;;;;5100865;28;20334;-46
2021/11/17 20:23:05;;;;;;;11.70;6.57;;;30.90;69.60;;;;;;5100930;28;20027;-50
2021/11/17 20:25:34;;;;;;;11.57;6.55;;;30.90;69.70;;;;;;5101231;28;20024;-49
2021/11/17 20:28:01;;;;;;;9.77;6.15;;;30.90;69.60;;;;;;5101371;28;20009;-49
2021/11/17 20:30:29;;;;;;;11.68;6.72;;;30.90;69.50;;;;;;5100957;28;20024;-51
2021/11/17 20:32:56;;;;;;;13.85;5.97;;;31.00;69.60;;;;;;5100691;28;20080;-51
2021/11/17 20:35:24;;;;;;;15.23;6.32;;;31.00;69.80;;;;;;5100553;28;20224;-46
2021/11/17 20:37:51;;;;;;;12.18;6.10;;;31.00;69.60;;;;;;5100656;28;20332;-49
2021/11/17 20:40:18;;;;;;;9.15;6.80;;;31.00;69.50;;;;;;5100508;28;20024;-49
2021/11/17 20:42:47;;;;;;;9.63;6.28;;;31.00;69.50;;;;;;5100424;28;20027;-50
2021/11/17 20:45:16;;;;;;;12.20;6.38;;;31.00;69.50;;;;;;5100886;28;20031;-48
2021/11/17 20:47:43;;;;;;;13.30;6.50;;;31.00;69.50;;;;;;5100487;28;20031;-49
2021/11/17 20:50:14;;;;;;;13.40;6.40;;;31.00;69.70;;;;;;5100765;28;20066;-48
2021/11/17 20:52:41;;;;;;;8.90;5.70;;;31.00;69.50;;;;;;5100376;28;20042;-51
2021/11/17 20:55:12;;;;;;;14.73;6.30;;;31.00;69.50;;;;;;5100539;28;20053;-47
2021/11/17 20:57:42;;;;;;;14.85;6.57;;;31.00;69.70;;;;;;5099915;28;20044;-49
2021/11/17 21:00:12;;;;;;;15.10;6.53;;;31.00;69.60;;;;;;5099980;28;20216;-47
2021/11/17 21:02:41;;;;;;;17.80;6.43;;;31.00;69.60;;;;;;5099957;28;20024;-49
2021/11/17 21:05:10;;;;;;;15.95;6.47;;;31.00;69.70;;;;;;5095514;28;20044;-52
2021/11/17 21:07:37;;;;;;;11.90;5.88;;;31.00;69.50;;;;;;5086232;28;20027;-51
2021/11/17 21:10:09;;;;;;;11.07;5.93;;;31.00;69.60;;;;;;5086481;28;20066;-43
2021/11/17 21:12:36;;;;;;;13.40;6.65;;;31.00;70.00;;;;;;5086500;28;20032;-47
2021/11/17 21:15:04;;;;;;;10.82;5.80;;;31.00;69.80;;;;;;5086587;28;20032;-53
2021/11/17 21:17:30;;;;;;;11.02;5.90;;;31.00;69.80;;;;;;5086184;28;20035;-55
2021/11/17 21:19:57;;;;;;;11.98;6.47;;;31.00;69.90;;;;;;5086526;28;20020;-51
2021/11/17 21:22:24;;;;;;;12.15;6.57;;;31.00;70.00;;;;;;5086173;28;20031;-49
2021/11/17 21:24:50;;;;;;;14.23;5.95;;;31.00;70.20;;;;;;5086350;28;20100;-52
2021/11/17 21:27:17;;;;;;;19.13;6.57;;;31.00;70.00;;;;;;5086246;28;20020;-50
2021/11/17 21:29:44;;;;;;;11.88;6.10;;;30.90;70.10;;;;;;5086628;28;20025;-46
2021/11/17 21:32:13;;;;;;;16.20;6.45;;;30.90;70.10;;;;;;5086027;28;20335;-48
2021/11/17 21:34:41;;;;;;;17.00;6.43;;;30.90;70.10;;;;;;5086404;28;20054;-47
2021/11/17 21:37:10;;;;;;;15.52;6.20;;;30.90;70.20;;;;;;5086131;28;20024;-45
2021/11/17 21:39:38;;;;;;;13.32;6.50;;;30.90;70.30;;;;;;5086212;28;20031;-47
2021/11/17 21:42:05;;;;;;;14.88;5.97;;;30.90;70.40;;;;;;5085960;28;20012;-46
2021/11/17 21:44:32;;;;;;;14.88;6.03;;;30.90;70.30;;;;;;5085853;28;20074;-49
2021/11/17 21:46:59;;;;;;;18.20;6.30;;;30.80;70.30;;;;;;5085727;28;20047;-47
2021/11/17 21:49:25;;;;;;;17.05;6.40;;;30.80;70.20;;;;;;5086119;28;20030;-47
2021/11/17 21:51:52;;;;;;;17.58;6.35;;;30.80;70.20;;;;;;5085893;28;20025;-48
2021/11/17 21:54:19;;;;;;;18.05;6.20;;;30.80;70.10;;;;;;5085685;28;20024;-50
2021/11/17 21:56:46;;;;;;;13.65;6.65;;;30.80;70.30;;;;;;5085670;28;20038;-46
2021/11/17 21:59:13;;;;;;;23.40;6.75;;;30.80;70.20;;;;;;5085900;28;20024;-48
2021/11/17 22:01:41;;;;;;;18.30;6.32;;;30.80;70.50;;;;;;5085448;28;20013;-49
2021/11/17 22:04:10;;;;;;;16.63;6.35;;;30.80;70.70;;;;;;5085403;28;20044;-50
2021/11/17 22:06:36;;;;;;;20.20;6.90;;;30.80;70.60;;;;;;5085468;28;20126;-52
2021/11/17 22:09:04;;;;;;;18.30;6.57;;;30.80;70.60;;;;;;5085220;28;20095;-49
2021/11/17 22:11:31;;;;;;;19.67;6.45;;;30.80;71.20;;;;;;5085163;28;20020;-51
2021/11/17 22:13:57;;;;;;;25.63;6.63;;;30.80;71.00;;;;;;5085415;28;20177;-47
2021/11/17 22:16:27;;;;;;;26.85;6.72;;;30.80;71.00;;;;;;5084514;28;20193;-50
2021/11/17 22:18:54;;;;;;;52.88;8.90;;;30.80;71.10;;;;;;5085017;28;20260;-49
2021/11/17 22:21:21;;;;;;;37.10;7.43;;;30.80;71.20;;;;;;5084903;28;20016;-49
2021/11/17 22:23:49;;;;;;;34.83;7.75;;;30.70;71.20;;;;;;5085018;28;20231;-49
2021/11/17 22:26:17;;;;;;;46.78;8.73;;;30.70;71.10;;;;;;5084838;28;20243;-48
2021/11/17 22:28:49;;;;;;;39.35;9.38;;;30.70;71.50;;;;;;5085129;28;20028;-49
2021/11/17 22:31:18;;;;;;;41.92;8.70;;;30.70;71.80;;;;;;5084898;28;20025;-50
2021/11/17 22:33:46;;;;;;;39.38;9.05;;;30.70;71.90;;;;;;5083766;28;20032;-48
2021/11/17 22:36:13;;;;;;;45.47;9.23;;;30.60;72.30;;;;;;5084697;28;20039;-50
2021/11/17 22:38:41;;;;;;;38.20;7.95;;;30.60;72.80;;;;;;5084792;28;20035;-46
2021/11/17 22:41:08;;;;;;;63.22;9.77;;;30.60;73.30;;;;;;5084505;28;20016;-48
2021/11/17 22:43:37;;;;;;;84.90;11.63;;;30.50;73.50;;;;;;5084547;28;20028;-52
2021/11/17 22:46:04;;;;;;;69.68;11.15;;;30.50;73.90;;;;;;5084673;28;20035;-51
2021/11/17 22:48:33;;;;;;;61.85;10.50;;;30.50;74.00;;;;;;5084894;28;20051;-49
2021/11/17 22:51:00;;;;;;;53.25;9.88;;;30.50;74.10;;;;;;5084331;28;20021;-44
2021/11/17 22:53:28;;;;;;;50.72;9.70;;;30.50;74.30;;;;;;5084349;28;20025;-48
2021/11/17 22:55:56;;;;;;;51.10;9.40;;;30.40;74.50;;;;;;5084287;28;20016;-48
2021/11/17 22:58:22;;;;;;;52.80;11.35;;;30.40;74.80;;;;;;5083837;28;20024;-49
2021/11/17 23:01:17;;;;;;;73.35;16.88;;;30.40;75.10;;;;;;5084418;28;20190;-46
2021/11/17 23:03:51;;;;;;;83.43;23.15;;;30.40;75.50;;;;;;5081989;28;20048;-51